Time;durP1;ratioP1;P1;durP2;ratioP2;P2;SDS_P1;SDS_P2;PMS_P1;PMS_P2;Temp;Humidity;BMP_temperature;BMP_pressure;BME280_temperature;BME280_humidity;BME280_pressure;Samples;Min_cycle;Max_cycle;Signal;HPM_P1;HPM_P2
2023/01/14 00:01:45;;;;;;;17.65;9.13;;;;;;;;;;5154900;27;20026;-74
2023/01/14 00:04:11;;;;;;;25.25;10.45;;;;;;;;;;5154440;27;20026;-75
2023/01/14 00:06:37;;;;;;;17.90;9.18;;;;;;;;;;5154774;27;20023;-72
2023/01/14 00:09:09;;;;;;;19.27;9.05;;;;;;;;;;5154480;27;20049;-76
2023/01/14 00:11:49;;;;;;;18.98;9.20;;;;;;;;;;5154501;27;20010;-78
2023/01/14 00:14:17;;;;;;;19.67;8.88;;;;;;;;;;5154576;27;20493;-79
2023/01/14 00:16:43;;;;;;;20.25;8.80;;;;;;;;;;5154644;27;20058;-78
2023/01/14 00:19:09;;;;;;;20.85;9.32;;;;;;;;;;5154570;27;20492;-73
2023/01/14 00:21:35;;;;;;;18.20;9.20;;;;;;;;;;5154400;27;20138;-72
2023/01/14 00:24:00;;;;;;;18.45;9.02;;;;;;;;;;5154394;27;20514;-79
2023/01/14 00:26:25;;;;;;;18.67;8.90;;;;;;;;;;5154173;27;20597;-81
2023/01/14 00:28:52;;;;;;;18.10;8.65;;;;;;;;;;5153957;27;20027;-73
2023/01/14 00:31:20;;;;;;;18.05;8.90;;;;;;;;;;5154131;27;20390;-73
2023/01/14 00:33:46;;;;;;;20.48;8.77;;;;;;;;;;5153774;27;20488;-73
2023/01/14 00:36:15;;;;;;;21.77;8.68;;;;;;;;;;5154261;27;20101;-73
2023/01/14 00:38:41;;;;;;;17.90;8.75;;;;;;;;;;5153855;27;20022;-74
2023/01/14 00:41:09;;;;;;;16.02;8.18;;;;;;;;;;5154109;27;20088;-73
2023/01/14 00:43:40;;;;;;;19.88;8.68;;;;;;;;;;5153822;27;20083;-73
2023/01/14 00:46:06;;;;;;;;;;;;;;;;;;5154119;27;20051;-73
2023/01/14 00:48:32;;;;;;;23.45;8.82;;;;;;;;;;5153490;27;20278;-74
2023/01/14 00:50:58;;;;;;;15.38;8.57;;;;;;;;;;5153880;27;20019;-74
2023/01/14 00:53:23;;;;;;;18.40;9.10;;;;;;;;;;5153864;27;20023;-74
2023/01/14 00:55:49;;;;;;;18.02;8.20;;;;;;;;;;5153724;27;20010;-74
2023/01/14 00:58:14;;;;;;;15.60;8.75;;;;;;;;;;5153422;27;20062;-77
2023/01/14 01:00:40;;;;;;;17.23;9.05;;;;;;;;;;5153758;27;20493;-72
2023/01/14 01:03:05;;;;;;;16.30;8.57;;;;;;;;;;5153250;27;20019;-72
2023/01/14 01:05:38;;;;;;;15.07;8.35;;;;;;;;;;5153468;27;20022;-80
2023/01/14 01:08:05;;;;;;;18.50;9.35;;;;;;;;;;5153248;27;20432;-72
2023/01/14 01:10:32;;;;;;;20.88;9.20;;;;;;;;;;5152751;27;20044;-80
2023/01/14 01:12:58;;;;;;;18.63;9.35;;;;;;;;;;5153638;27;20023;-79
2023/01/14 01:15:23;;;;;;;17.08;8.43;;;;;;;;;;5153352;27;20026;-80
2023/01/14 01:17:48;;;;;;;19.50;9.77;;;;;;;;;;5153129;27;20644;-80
2023/01/14 01:20:14;;;;;;;16.83;8.30;;;;;;;;;;5153226;27;20097;-79
2023/01/14 01:22:39;;;;;;;17.10;9.00;;;;;;;;;;5152997;27;20030;-75
2023/01/14 01:25:05;;;;;;;15.68;8.27;;;;;;;;;;5153287;27;20050;-74
2023/01/14 01:27:30;;;;;;;17.95;8.77;;;;;;;;;;5153163;27;20063;-81
2023/01/14 01:29:56;;;;;;;16.20;8.30;;;;;;;;;;5153257;27;20471;-78
2023/01/14 01:32:21;;;;;;;15.02;8.20;;;;;;;;;;5153256;27;20068;-81
2023/01/14 01:34:47;;;;;;;17.10;8.00;;;;;;;;;;5152966;27;20533;-77
2023/01/14 01:37:12;;;;;;;17.20;8.20;;;;;;;;;;5152939;27;20034;-73
2023/01/14 01:39:37;;;;;;;14.18;7.97;;;;;;;;;;5152826;27;20474;-73
2023/01/14 01:42:03;;;;;;;16.25;7.80;;;;;;;;;;5152731;27;20027;-80
2023/01/14 01:44:28;;;;;;;15.52;7.85;;;;;;;;;;5152847;27;20110;-79
2023/01/14 01:46:54;;;;;;;20.40;9.23;;;;;;;;;;5152094;27;20043;-73
2023/01/14 01:49:29;;;;;;;20.65;9.98;;;;;;;;;;5151865;27;20038;-80
2023/01/14 01:52:02;;;;;;;20.65;9.20;;;;;;;;;;5152010;27;20607;-82
2023/01/14 01:54:32;;;;;;;25.15;11.70;;;;;;;;;;5152179;27;20103;-82
2023/01/14 01:56:59;;;;;;;23.33;12.07;;;;;;;;;;5152885;27;20494;-75
2023/01/14 01:59:31;;;;;;;23.88;11.35;;;;;;;;;;5151533;27;20110;-74
2023/01/14 02:01:57;;;;;;;18.98;9.95;;;;;;;;;;5151875;27;20027;-81
2023/01/14 02:04:23;;;;;;;19.30;10.05;;;;;;;;;;5151309;27;20042;-79
2023/01/14 02:06:49;;;;;;;21.30;11.02;;;;;;;;;;5151787;27;21123;-81
2023/01/14 02:09:16;;;;;;;21.05;10.68;;;;;;;;;;5151786;27;20541;-83
2023/01/14 02:11:58;;;;;;;19.30;9.95;;;;;;;;;;5151881;27;20023;-83
2023/01/14 02:14:35;;;;;;;20.77;10.38;;;;;;;;;;5150593;27;20698;-82
2023/01/14 02:17:23;;;;;;;21.02;10.60;;;;;;;;;;5152136;27;20386;-77
2023/01/14 02:19:57;;;;;;;19.67;10.18;;;;;;;;;;5152312;27;20083;-80
2023/01/14 02:23:10;;;;;;;20.08;9.93;;;;;;;;;;5166066;27;20054;-77
2023/01/14 02:25:57;;;;;;;18.58;10.07;;;;;;;;;;5170127;27;20034;-73
2023/01/14 02:28:44;;;;;;;20.33;10.60;;;;;;;;;;5152185;27;20122;-82
2023/01/14 02:31:12;;;;;;;22.40;10.60;;;;;;;;;;5152381;27;20098;-73
2023/01/14 02:33:52;;;;;;;20.80;11.10;;;;;;;;;;5151585;27;20026;-76
2023/01/14 02:36:40;;;;;;;18.92;10.63;;;;;;;;;;5151314;27;20031;-79
2023/01/14 02:39:27;;;;;;;19.83;10.88;;;;;;;;;;5151239;27;20035;-73
2023/01/14 02:47:37;;;;;;;17.95;9.32;;;;;;;;;;5108407;27;20516;-72
2023/01/14 02:50:03;;;;;;;18.85;9.48;;;;;;;;;;5108247;28;20031;-74
2023/01/14 02:52:29;;;;;;;16.73;9.02;;;;;;;;;;5108127;28;20027;-81
2023/01/14 02:55:03;;;;;;;17.00;8.85;;;;;;;;;;5108454;28;20104;-79
2023/01/14 02:57:43;;;;;;;15.63;9.25;;;;;;;;;;5108372;28;20089;-73
2023/01/14 03:00:16;;;;;;;15.13;9.17;;;;;;;;;;5108577;28;20028;-73
2023/01/14 03:02:47;;;;;;;17.45;9.32;;;;;;;;;;5108085;28;20277;-74
2023/01/14 03:05:26;;;;;;;17.52;8.85;;;;;;;;;;5107778;28;20510;-80
2023/01/14 03:07:59;;;;;;;15.95;8.93;;;;;;;;;;5107897;28;20449;-73
2023/01/14 03:10:32;;;;;;;14.65;8.45;;;;;;;;;;5108008;28;20032;-80
2023/01/14 03:13:25;;;;;;;16.35;9.30;;;;;;;;;;5108191;28;20030;-77
2023/01/14 03:16:08;;;;;;;14.98;8.15;;;;;;;;;;5108246;28;20703;-78
2023/01/14 03:18:43;;;;;;;13.77;7.90;;;;;;;;;;5107766;28;20023;-73
2023/01/14 03:21:15;;;;;;;16.80;8.27;;;;;;;;;;5107773;28;20450;-71
2023/01/14 03:23:51;;;;;;;11.95;7.32;;;;;;;;;;5107718;28;20529;-73
2023/01/14 03:26:18;;;;;;;13.00;7.70;;;;;;;;;;5107715;28;20032;-78
2023/01/14 03:28:50;;;;;;;13.35;7.15;;;;;;;;;;5106371;28;20063;-77
2023/01/14 03:31:22;;;;;;;11.70;6.78;;;;;;;;;;5107773;28;20094;-74
2023/01/14 03:33:58;;;;;;;10.77;7.10;;;;;;;;;;5107851;28;20056;-81
2023/01/14 03:36:27;;;;;;;16.40;6.90;;;;;;;;;;5107808;28;20015;-79
2023/01/14 03:39:00;;;;;;;14.13;6.88;;;;;;;;;;5107388;28;20081;-79
2023/01/14 03:44:34;;;;;;;12.65;6.22;;;;;;;;;;5107621;28;20030;-77
2023/01/14 03:47:00;;;;;;;15.82;6.63;;;;;;;;;;5096113;28;20048;-82
2023/01/14 03:49:26;;;;;;;20.88;6.55;;;;;;;;;;5105967;28;20020;-80
2023/01/14 03:52:00;;;;;;;22.83;6.30;;;;;;;;;;5107583;28;20023;-77
2023/01/14 03:54:43;;;;;;;12.27;6.32;;;;;;;;;;5107396;28;20020;-77
2023/01/14 03:57:33;;;;;;;10.57;5.88;;;;;;;;;;5103926;28;20434;-78
2023/01/14 04:00:04;;;;;;;11.43;5.38;;;;;;;;;;5093330;28;20024;-79
2023/01/14 04:02:30;;;;;;;16.25;5.25;;;;;;;;;;5093805;28;20561;-78
2023/01/14 04:04:57;;;;;;;10.38;5.38;;;;;;;;;;5099497;28;20365;-77
2023/01/14 04:07:24;;;;;;;8.80;5.15;;;;;;;;;;5102393;28;20046;-78
2023/01/14 04:09:50;;;;;;;9.13;5.40;;;;;;;;;;5102543;28;20023;-76
2023/01/14 04:12:16;;;;;;;10.27;5.68;;;;;;;;;;5103652;28;20055;-73
2023/01/14 04:17:25;;;;;;;12.80;6.10;;;;;;;;;;5104628;28;20038;-74
2023/01/14 04:19:51;;;;;;;10.25;5.60;;;;;;;;;;5104250;28;20032;-75
2023/01/14 04:22:16;;;;;;;10.00;5.00;;;;;;;;;;5104449;28;20032;-74
2023/01/14 04:24:42;;;;;;;8.77;5.53;;;;;;;;;;5103650;28;20028;-73
2023/01/14 04:27:07;;;;;;;9.07;5.45;;;;;;;;;;5103808;28;20038;-73
2023/01/14 04:29:32;;;;;;;10.00;5.90;;;;;;;;;;5103422;28;20059;-72
2023/01/14 04:31:58;;;;;;;8.63;5.43;;;;;;;;;;5103745;28;20026;-73
2023/01/14 04:34:23;;;;;;;9.38;5.47;;;;;;;;;;5103360;28;20231;-73
2023/01/14 04:36:49;;;;;;;9.32;5.35;;;;;;;;;;5102720;28;20027;-72
2023/01/14 04:39:14;;;;;;;8.35;5.20;;;;;;;;;;5105359;28;20058;-74
2023/01/14 04:44:23;;;;;;;9.80;5.35;;;;;;;;;;5103224;28;20034;-71
2023/01/14 04:46:49;;;;;;;8.23;5.25;;;;;;;;;;5102965;28;20044;-72
2023/01/14 04:49:14;;;;;;;13.00;5.57;;;;;;;;;;5103628;28;20054;-73
2023/01/14 04:51:39;;;;;;;10.70;5.90;;;;;;;;;;5103369;28;20032;-73
2023/01/14 04:54:05;;;;;;;8.63;5.07;;;;;;;;;;5103003;28;20141;-74
2023/01/14 04:56:30;;;;;;;10.35;5.68;;;;;;;;;;5103384;28;20091;-74
2023/01/14 04:59:01;;;;;;;8.43;5.13;;;;;;;;;;5103442;28;20271;-72
2023/01/14 05:01:26;;;;;;;9.25;5.15;;;;;;;;;;5103693;28;20095;-74
2023/01/14 05:03:52;;;;;;;8.63;5.38;;;;;;;;;;5103497;28;20032;-74
2023/01/14 05:06:18;;;;;;;10.05;5.40;;;;;;;;;;5103627;28;20074;-74
2023/01/14 05:08:43;;;;;;;8.73;5.10;;;;;;;;;;5102843;28;20035;-74
2023/01/14 05:11:08;;;;;;;11.60;5.43;;;;;;;;;;5101729;28;20020;-72
2023/01/14 05:13:34;;;;;;;7.95;5.30;;;;;;;;;;5103124;28;20212;-74
2023/01/14 05:16:02;;;;;;;9.00;4.90;;;;;;;;;;5103514;28;20084;-74
2023/01/14 05:18:27;;;;;;;7.47;4.80;;;;;;;;;;5103178;28;20047;-73
2023/01/14 05:20:53;;;;;;;8.48;4.78;;;;;;;;;;5103457;28;20144;-73
2023/01/14 05:23:19;;;;;;;8.57;4.72;;;;;;;;;;5103187;28;20023;-72
2023/01/14 05:25:45;;;;;;;7.72;4.43;;;;;;;;;;5082891;28;20067;-72
2023/01/14 05:28:13;;;;;;;9.73;5.13;;;;;;;;;;5082573;28;20036;-73
2023/01/14 05:30:39;;;;;;;9.48;4.40;;;;;;;;;;5082574;28;20301;-73
2023/01/14 05:33:04;;;;;;;8.82;4.20;;;;;;;;;;5082834;28;20036;-74
2023/01/14 05:35:31;;;;;;;8.45;4.60;;;;;;;;;;5081431;28;20062;-72
2023/01/14 05:37:57;;;;;;;7.85;4.65;;;;;;;;;;5082796;28;20028;-74
2023/01/14 05:40:22;;;;;;;9.38;4.82;;;;;;;;;;5082602;28;20046;-74
2023/01/14 05:45:38;;;;;;;7.10;4.28;;;;;;;;;;5082262;28;20115;-73
2023/01/14 05:48:05;;;;;;;8.45;4.43;;;;;;;;;;5082471;28;20028;-74
2023/01/14 05:50:31;;;;;;;7.70;4.30;;;;;;;;;;5081995;28;20024;-73
2023/01/14 05:52:56;;;;;;;8.30;4.47;;;;;;;;;;5082515;28;20097;-73
2023/01/14 05:55:21;;;;;;;6.97;4.38;;;;;;;;;;5082510;28;20021;-73
2023/01/14 05:57:47;;;;;;;7.30;4.30;;;;;;;;;;5082403;28;20035;-74
2023/01/14 06:06:20;;;;;;;8.90;4.05;;;;;;;;;;5082173;28;20035;-74
2023/01/14 06:08:27;;;;;;;11.15;4.75;;;;;;;;;;5082220;28;20035;-74
2023/01/14 06:10:53;;;;;;;8.45;4.97;;;;;;;;;;5082001;28;20028;-74
2023/01/14 06:13:21;;;;;;;9.82;5.18;;;;;;;;;;5085509;28;20030;-75
2023/01/14 06:15:46;;;;;;;9.27;5.50;;;;;;;;;;5090003;28;20076;-73
2023/01/14 06:18:20;;;;;;;12.48;6.10;;;;;;;;;;5086888;28;20054;-75
2023/01/14 06:20:46;;;;;;;9.88;4.90;;;;;;;;;;5081398;28;20020;-77
2023/01/14 06:23:13;;;;;;;10.50;4.50;;;;;;;;;;5081782;28;20051;-73
2023/01/14 06:25:41;;;;;;;7.95;4.50;;;;;;;;;;5081763;28;20412;-73
2023/01/14 06:28:06;;;;;;;8.23;4.20;;;;;;;;;;5081688;28;20032;-74
2023/01/14 06:30:32;;;;;;;6.97;4.35;;;;;;;;;;5081365;28;20023;-73
2023/01/14 06:32:57;;;;;;;10.25;4.78;;;;;;;;;;5080429;28;20035;-73
2023/01/14 06:35:23;;;;;;;8.43;4.50;;;;;;;;;;5080493;28;20216;-71
2023/01/14 06:37:49;;;;;;;9.40;4.60;;;;;;;;;;5079206;28;20092;-73
2023/01/14 06:40:14;;;;;;;6.53;3.95;;;;;;;;;;5079107;28;20036;-72
2023/01/14 06:42:41;;;;;;;6.20;3.80;;;;;;;;;;5081745;28;20025;-73
2023/01/14 06:45:10;;;;;;;7.43;3.97;;;;;;;;;;5081850;28;20072;-73
2023/01/14 06:47:36;;;;;;;6.75;4.30;;;;;;;;;;5081306;28;20039;-73
2023/01/14 06:50:03;;;;;;;6.07;3.58;;;;;;;;;;5077573;28;20029;-73
2023/01/14 06:52:28;;;;;;;7.07;4.05;;;;;;;;;;5078593;28;20025;-72
2023/01/14 06:54:55;;;;;;;7.35;4.10;;;;;;;;;;5080941;28;20273;-72
2023/01/14 06:57:21;;;;;;;6.95;4.05;;;;;;;;;;5075328;28;20017;-72
2023/01/14 06:59:46;;;;;;;6.03;3.80;;;;;;;;;;5080444;28;20094;-72
2023/01/14 07:02:12;;;;;;;6.25;3.50;;;;;;;;;;5080194;28;20029;-72
2023/01/14 07:04:38;;;;;;;7.05;3.60;;;;;;;;;;5077301;28;20024;-72
2023/01/14 07:07:05;;;;;;;6.53;3.45;;;;;;;;;;5081109;28;20134;-73
2023/01/14 07:09:30;;;;;;;6.20;3.38;;;;;;;;;;5080102;28;20037;-72
2023/01/14 07:11:56;;;;;;;8.20;3.53;;;;;;;;;;5079471;28;20063;-72
2023/01/14 07:14:21;;;;;;;8.88;4.22;;;;;;;;;;5072915;28;20441;-75
2023/01/14 07:16:46;;;;;;;10.23;4.38;;;;;;;;;;5072762;28;20473;-72
2023/01/14 07:19:12;;;;;;;8.70;4.45;;;;;;;;;;5074795;28;20031;-74
2023/01/14 07:21:38;;;;;;;9.65;4.43;;;;;;;;;;5079587;28;20017;-74
2023/01/14 07:24:04;;;;;;;8.38;4.63;;;;;;;;;;5079629;28;20036;-74
2023/01/14 07:26:30;;;;;;;8.93;4.13;;;;;;;;;;5078898;28;20115;-74
2023/01/14 07:28:55;;;;;;;9.27;4.03;;;;;;;;;;5077071;28;20055;-74
2023/01/14 07:31:21;;;;;;;8.45;4.63;;;;;;;;;;5078611;28;20032;-74
2023/01/14 07:33:46;;;;;;;7.75;3.90;;;;;;;;;;5082131;28;20048;-73
2023/01/14 07:36:12;;;;;;;6.57;3.80;;;;;;;;;;5081208;28;20225;-74
2023/01/14 07:38:37;;;;;;;7.13;3.78;;;;;;;;;;5084365;28;20031;-72
2023/01/14 07:41:11;;;;;;;7.15;3.63;;;;;;;;;;5082897;28;20044;-72
2023/01/14 07:43:37;;;;;;;8.82;3.95;;;;;;;;;;5084239;28;20024;-74
2023/01/14 07:46:02;;;;;;;9.60;4.70;;;;;;;;;;5082209;28;20136;-72
2023/01/14 07:48:29;;;;;;;9.35;4.50;;;;;;;;;;5078668;28;20084;-73
2023/01/14 07:50:54;;;;;;;7.93;4.43;;;;;;;;;;5097213;28;20043;-73
2023/01/14 07:53:20;;;;;;;14.02;4.78;;;;;;;;;;5104052;28;20019;-72
2023/01/14 07:55:45;;;;;;;12.40;4.60;;;;;;;;;;5104208;28;20020;-75
2023/01/14 07:58:11;;;;;;;7.45;4.47;;;;;;;;;;5103902;28;20032;-73
2023/01/14 08:00:36;;;;;;;7.40;4.15;;;;;;;;;;5103422;28;20036;-72
2023/01/14 08:03:03;;;;;;;8.75;5.00;;;;;;;;;;5104520;28;20039;-75
2023/01/14 08:05:28;;;;;;;9.38;4.80;;;;;;;;;;5104564;28;20028;-72
2023/01/14 08:07:54;;;;;;;8.88;4.80;;;;;;;;;;5102597;28;20035;-72
2023/01/14 08:10:19;;;;;;;10.30;4.57;;;;;;;;;;5103007;28;20102;-72
2023/01/14 08:12:45;;;;;;;9.77;4.88;;;;;;;;;;5104094;28;20027;-72
2023/01/14 08:15:11;;;;;;;7.90;4.32;;;;;;;;;;5102790;28;20035;-73
2023/01/14 08:17:37;;;;;;;9.10;4.38;;;;;;;;;;5097308;28;20028;-73
2023/01/14 08:20:03;;;;;;;7.97;4.22;;;;;;;;;;5099522;28;20223;-74
2023/01/14 08:22:29;;;;;;;8.57;4.47;;;;;;;;;;5097020;28;20085;-72
2023/01/14 08:24:55;;;;;;;8.68;4.25;;;;;;;;;;5101801;28;20078;-73
2023/01/14 08:27:20;;;;;;;8.65;4.47;;;;;;;;;;5097895;28;20039;-74
2023/01/14 08:29:46;;;;;;;10.07;4.13;;;;;;;;;;5096051;28;20020;-72
2023/01/14 08:32:13;;;;;;;9.45;4.45;;;;;;;;;;5103926;28;20028;-73
2023/01/14 08:34:39;;;;;;;6.72;4.20;;;;;;;;;;5104081;28;20039;-72
2023/01/14 08:37:04;;;;;;;8.40;4.18;;;;;;;;;;5103446;28;20028;-73
2023/01/14 08:39:29;;;;;;;9.20;4.10;;;;;;;;;;5099194;28;20031;-72
2023/01/14 08:41:56;;;;;;;7.25;3.80;;;;;;;;;;5103344;28;20032;-72
2023/01/14 08:44:21;;;;;;;7.22;3.78;;;;;;;;;;5103102;28;20223;-73
2023/01/14 08:46:47;;;;;;;8.52;4.45;;;;;;;;;;5103008;28;20530;-71
2023/01/14 08:49:12;;;;;;;8.07;4.10;;;;;;;;;;5103941;28;20023;-72
2023/01/14 08:51:38;;;;;;;9.77;4.80;;;;;;;;;;5103865;28;20443;-71
2023/01/14 08:54:03;;;;;;;15.50;6.50;;;;;;;;;;5102080;28;20028;-73
2023/01/14 08:56:29;;;;;;;16.45;6.80;;;;;;;;;;5103810;28;20085;-73
2023/01/14 08:58:54;;;;;;;36.22;13.80;;;;;;;;;;5103749;28;20091;-73
2023/01/14 09:01:20;;;;;;;17.00;7.63;;;;;;;;;;5101432;28;20028;-74
2023/01/14 09:03:47;;;;;;;10.48;5.38;;;;;;;;;;5103824;28;20302;-77
2023/01/14 09:06:14;;;;;;;9.63;4.88;;;;;;;;;;5103205;28;20024;-74
2023/01/14 09:17:04;;;;;;;17.33;6.97;;;;;;;;;;5102640;28;20027;-73
2023/01/14 09:19:32;;;;;;;13.35;6.47;;;;;;;;;;5089886;28;20021;-71
2023/01/14 09:21:58;;;;;;;9.18;5.05;;;;;;;;;;5082888;28;20452;-74
2023/01/14 09:24:23;;;;;;;8.02;5.30;;;;;;;;;;5080922;28;20103;-77
2023/01/14 09:26:48;;;;;;;14.30;5.85;;;;;;;;;;5081007;28;20204;-76
2023/01/14 09:29:14;;;;;;;9.23;5.45;;;;;;;;;;5082518;28;20019;-78
2023/01/14 09:31:39;;;;;;;8.55;4.70;;;;;;;;;;5082347;28;20070;-76
2023/01/14 09:34:05;;;;;;;7.75;4.55;;;;;;;;;;5081883;28;20020;-77
2023/01/14 09:36:30;;;;;;;9.30;4.38;;;;;;;;;;5082244;28;20048;-77
2023/01/14 09:38:56;;;;;;;8.75;4.32;;;;;;;;;;5082732;28;20096;-73
2023/01/14 09:41:28;;;;;;;9.52;4.13;;;;;;;;;;5078566;28;20024;-72
2023/01/14 09:43:54;;;;;;;7.40;3.72;;;;;;;;;;5087495;28;20028;-76
2023/01/14 09:46:26;;;;;;;10.27;3.63;;;;;;;;;;5072650;28;20053;-73
2023/01/14 09:48:54;;;;;;;8.48;3.40;;;;;;;;;;5073534;28;20106;-72
2023/01/14 09:51:54;;;;;;;9.98;3.50;;;;;;;;;;5091585;28;20101;-75
2023/01/14 09:54:28;;;;;;;8.35;3.38;;;;;;;;;;5091488;28;20024;-73
2023/01/14 09:57:06;;;;;;;7.47;3.65;;;;;;;;;;5091323;28;20027;-73
2023/01/14 09:59:50;;;;;;;6.63;3.78;;;;;;;;;;5071155;28;20024;-72
2023/01/14 10:02:18;;;;;;;7.32;3.65;;;;;;;;;;5077250;28;20032;-72
2023/01/14 10:05:28;;;;;;;8.35;3.50;;;;;;;;;;5094684;28;20027;-74
2023/01/14 10:07:59;;;;;;;8.97;3.67;;;;;;;;;;5110431;28;20355;-73
2023/01/14 10:10:32;;;;;;;6.60;3.33;;;;;;;;;;5087317;28;20272;-73
2023/01/14 10:13:03;;;;;;;11.50;3.78;;;;;;;;;;5096938;28;20083;-72
2023/01/14 10:15:34;;;;;;;;;;;;;;;;;;5098334;28;20034;-73
2023/01/14 10:18:22;;;;;;;8.73;3.60;;;;;;;;;;5079373;28;19934;-74
2023/01/14 10:20:55;;;;;;;9.45;3.60;;;;;;;;;;5098261;28;20039;-74
2023/01/14 10:23:39;;;;;;;7.72;3.38;;;;;;;;;;5097885;28;20502;-73
2023/01/14 10:26:13;;;;;;;8.50;3.45;;;;;;;;;;5095969;28;20118;-74
2023/01/14 10:28:40;;;;;;;10.60;3.85;;;;;;;;;;5096360;28;20032;-72
2023/01/14 10:31:06;;;;;;;9.63;3.80;;;;;;;;;;5099129;28;20312;-73
2023/01/14 10:33:31;;;;;;;9.93;3.78;;;;;;;;;;5092770;28;20030;-75
2023/01/14 10:36:01;;;;;;;7.72;3.30;;;;;;;;;;5088650;28;20435;-73
2023/01/14 10:38:27;;;;;;;7.93;3.50;;;;;;;;;;5092462;28;20020;-73
2023/01/14 10:41:02;;;;;;;6.70;3.30;;;;;;;;;;5090044;28;20024;-73
2023/01/14 10:43:34;;;;;;;7.18;3.33;;;;;;;;;;5090498;28;20082;-73
2023/01/14 10:46:00;;;;;;;7.70;3.67;;;;;;;;;;5089928;28;20079;-73
2023/01/14 10:48:28;;;;;;;9.65;3.60;;;;;;;;;;5090120;28;20064;-72
2023/01/14 10:50:54;;;;;;;6.40;3.38;;;;;;;;;;5090520;28;20099;-73
2023/01/14 10:53:23;;;;;;;6.05;3.30;;;;;;;;;;5092352;28;20063;-72
2023/01/14 10:55:56;;;;;;;6.13;2.78;;;;;;;;;;5095032;28;20032;-72
2023/01/14 10:58:36;;;;;;;8.02;2.97;;;;;;;;;;5090093;28;20027;-72
2023/01/14 11:01:07;;;;;;;6.43;3.00;;;;;;;;;;5093036;28;20310;-72
2023/01/14 11:03:37;;;;;;;8.70;2.90;;;;;;;;;;5090835;28;20031;-72
2023/01/14 11:06:11;;;;;;;8.13;3.08;;;;;;;;;;5092887;28;20377;-72
2023/01/14 11:08:41;;;;;;;7.80;2.50;;;;;;;;;;5097565;28;20031;-73
2023/01/14 11:11:10;;;;;;;8.05;2.80;;;;;;;;;;5093687;28;20442;-72
2023/01/14 11:13:42;;;;;;;9.20;2.63;;;;;;;;;;5081289;28;20054;-73
2023/01/14 11:16:25;;;;;;;9.15;2.70;;;;;;;;;;5094355;28;20020;-72
2023/01/14 11:19:02;;;;;;;8.20;2.30;;;;;;;;;;5093963;28;20031;-76
2023/01/14 11:21:29;;;;;;;6.20;2.22;;;;;;;;;;5093673;28;20020;-73
2023/01/14 11:24:08;;;;;;;6.85;2.10;;;;;;;;;;5094155;28;20027;-74
2023/01/14 11:26:36;;;;;;;8.45;2.20;;;;;;;;;;5093700;28;20031;-73
2023/01/14 11:29:17;;;;;;;7.20;1.58;;;;;;;;;;5094131;28;20016;-73
2023/01/14 11:31:43;;;;;;;7.75;2.13;;;;;;;;;;5082699;28;20021;-73
2023/01/14 11:34:36;;;;;;;8.65;2.08;;;;;;;;;;5071916;28;20097;-73
2023/01/14 11:37:06;;;;;;;7.22;2.00;;;;;;;;;;5073255;28;20025;-73
2023/01/14 11:39:36;;;;;;;6.28;1.80;;;;;;;;;;5073726;28;20533;-76
2023/01/14 11:42:25;;;;;;;6.07;1.85;;;;;;;;;;5073327;28;20032;-75
2023/01/14 11:44:58;;;;;;;6.00;1.77;;;;;;;;;;5073889;28;20044;-72
2023/01/14 11:47:23;;;;;;;8.05;1.83;;;;;;;;;;5080786;28;20052;-72
2023/01/14 11:50:28;;;;;;;5.47;1.83;;;;;;;;;;5087592;28;20040;-72
2023/01/14 11:52:58;;;;;;;5.57;1.55;;;;;;;;;;5090958;28;20522;-73
2023/01/14 11:55:26;;;;;;;6.53;1.60;;;;;;;;;;5093241;28;20028;-72
2023/01/14 11:57:52;;;;;;;6.63;1.63;;;;;;;;;;5092208;28;20028;-73
2023/01/14 12:00:20;;;;;;;6.50;1.70;;;;;;;;;;5093067;28;20081;-73
2023/01/14 12:02:50;;;;;;;7.78;1.75;;;;;;;;;;5093616;28;20034;-73
2023/01/14 12:05:19;;;;;;;7.13;2.20;;;;;;;;;;5093620;28;20024;-71
2023/01/14 12:07:55;;;;;;;7.68;2.17;;;;;;;;;;5077854;28;20035;-72
2023/01/14 12:10:34;;;;;;;10.00;1.80;;;;;;;;;;5093882;28;20055;-72
2023/01/14 12:19:03;;;;;;;6.05;1.70;;;;;;;;;;5101269;28;20081;-71
2023/01/14 12:21:36;;;;;;;8.52;2.10;;;;;;;;;;5101210;28;20281;-72
2023/01/14 12:24:11;;;;;;;7.25;1.80;;;;;;;;;;5090199;28;20044;-71
2023/01/14 12:26:40;;;;;;;5.13;1.83;;;;;;;;;;5099584;28;20051;-74
2023/01/14 12:29:13;;;;;;;4.32;1.70;;;;;;;;;;5095302;28;20028;-72
2023/01/14 12:31:43;;;;;;;5.07;1.67;;;;;;;;;;5093868;28;20027;-73
2023/01/14 12:34:18;;;;;;;7.30;1.70;;;;;;;;;;5093460;28;20024;-73
2023/01/14 12:36:59;;;;;;;8.40;1.83;;;;;;;;;;5090774;28;20456;-73
2023/01/14 12:45:44;;;;;;;4.78;1.58;;;;;;;;;;5089138;28;20576;-72
2023/01/14 12:48:12;;;;;;;6.88;1.65;;;;;;;;;;5091415;28;20039;-70
2023/01/14 12:50:46;;;;;;;7.30;1.60;;;;;;;;;;5101122;28;20055;-71
2023/01/14 12:53:18;;;;;;;7.18;1.88;;;;;;;;;;5093328;28;20028;-71
2023/01/14 12:55:46;;;;;;;7.22;1.85;;;;;;;;;;5095277;28;20109;-72
2023/01/14 12:58:33;;;;;;;4.20;1.50;;;;;;;;;;5096154;28;20028;-72
2023/01/14 13:01:06;;;;;;;8.20;2.22;;;;;;;;;;5092770;28;20034;-73
2023/01/14 13:04:05;;;;;;;6.93;1.75;;;;;;;;;;5091899;28;20024;-78
2023/01/14 13:06:37;;;;;;;7.57;1.90;;;;;;;;;;5025706;28;20488;-75
2023/01/14 13:09:05;;;;;;;7.95;1.98;;;;;;;;;;5094050;28;20111;-72
2023/01/14 13:11:45;;;;;;;5.85;1.80;;;;;;;;;;5091949;28;20028;-72
2023/01/14 13:14:33;;;;;;;5.95;1.55;;;;;;;;;;5091001;28;20434;-72
2023/01/14 13:17:01;;;;;;;8.07;1.73;;;;;;;;;;5092017;28;20200;-73
2023/01/14 13:19:46;;;;;;;8.60;2.30;;;;;;;;;;5091384;28;20027;-73
2023/01/14 13:22:11;;;;;;;5.65;1.98;;;;;;;;;;5093407;28;20034;-72
2023/01/14 13:24:58;;;;;;;6.40;1.70;;;;;;;;;;5096378;28;20136;-74
2023/01/14 13:27:33;;;;;;;9.48;2.08;;;;;;;;;;5090590;28;20036;-74
2023/01/14 13:30:17;;;;;;;10.35;1.60;;;;;;;;;;5091400;28;20103;-72
2023/01/14 13:33:01;;;;;;;4.07;1.30;;;;;;;;;;5093177;28;20051;-71
2023/01/14 13:35:35;;;;;;;6.32;1.42;;;;;;;;;;5097105;28;20419;-73
2023/01/14 13:38:04;;;;;;;5.03;1.27;;;;;;;;;;5091457;28;20024;-73
2023/01/14 13:40:33;;;;;;;6.72;1.63;;;;;;;;;;5091632;28;20451;-71
2023/01/14 13:43:15;;;;;;;5.18;1.35;;;;;;;;;;5095757;28;20028;-72
2023/01/14 13:45:40;;;;;;;3.83;1.20;;;;;;;;;;5093258;28;20043;-72
2023/01/14 13:48:18;;;;;;;5.85;1.50;;;;;;;;;;5098930;28;20027;-72
2023/01/14 13:50:43;;;;;;;9.65;1.50;;;;;;;;;;5094134;28;20028;-72
2023/01/14 13:53:25;;;;;;;6.22;1.45;;;;;;;;;;5092448;28;20383;-72
2023/01/14 13:55:55;;;;;;;5.03;1.33;;;;;;;;;;5096526;28;20320;-72
2023/01/14 13:58:37;;;;;;;6.68;1.40;;;;;;;;;;5103393;28;20027;-72
2023/01/14 14:01:31;;;;;;;5.10;1.17;;;;;;;;;;5107372;28;20032;-72
2023/01/14 14:03:58;;;;;;;6.70;1.35;;;;;;;;;;5103926;28;20032;-74
2023/01/14 14:06:24;;;;;;;5.03;1.25;;;;;;;;;;5097135;28;20067;-76
2023/01/14 14:09:04;;;;;;;5.88;1.30;;;;;;;;;;5094506;28;20220;-75
2023/01/14 14:11:49;;;;;;;7.00;1.50;;;;;;;;;;5098629;28;20521;-76
2023/01/14 14:14:25;;;;;;;9.05;1.60;;;;;;;;;;5080104;28;20221;-74
2023/01/14 14:17:04;;;;;;;5.30;1.30;;;;;;;;;;5100033;28;20368;-74
2023/01/14 14:19:44;;;;;;;8.70;1.88;;;;;;;;;;5080443;28;20033;-77
2023/01/14 14:22:20;;;;;;;5.18;1.40;;;;;;;;;;5076191;28;20096;-82
2023/01/14 14:24:53;;;;;;;8.18;1.80;;;;;;;;;;5071655;28;20097;-72
2023/01/14 14:27:28;;;;;;;4.05;1.50;;;;;;;;;;5085774;28;20542;-74
2023/01/14 14:29:59;;;;;;;5.38;1.50;;;;;;;;;;5091985;28;20024;-71
2023/01/14 14:32:28;;;;;;;6.05;1.40;;;;;;;;;;5090440;28;20406;-71
2023/01/14 14:35:06;;;;;;;5.97;1.75;;;;;;;;;;5089601;28;20142;-72
2023/01/14 14:37:34;;;;;;;6.25;1.40;;;;;;;;;;5088931;28;20065;-71
2023/01/14 14:40:02;;;;;;;9.63;1.50;;;;;;;;;;5088930;28;20372;-71
2023/01/14 14:42:28;;;;;;;8.02;1.45;;;;;;;;;;5088519;28;20012;-72
2023/01/14 14:44:55;;;;;;;5.15;1.35;;;;;;;;;;5089305;28;20089;-69
2023/01/14 14:47:28;;;;;;;5.72;1.35;;;;;;;;;;5088422;28;20109;-70
2023/01/14 14:49:54;;;;;;;4.18;1.40;;;;;;;;;;5089815;28;20024;-70
2023/01/14 14:52:21;;;;;;;5.70;1.20;;;;;;;;;;5093589;28;20115;-71
2023/01/14 14:54:48;;;;;;;3.25;1.00;;;;;;;;;;5092967;28;20091;-71
2023/01/14 14:57:30;;;;;;;5.40;1.08;;;;;;;;;;5095924;28;20035;-70
2023/01/14 15:00:00;;;;;;;8.23;1.30;;;;;;;;;;5092756;28;20070;-70
2023/01/14 15:02:29;;;;;;;;;;;;;;;;;;5095119;28;20062;-69
2023/01/14 15:05:03;;;;;;;6.18;1.27;;;;;;;;;;5096972;28;20368;-70
2023/01/14 15:07:29;;;;;;;6.07;1.50;;;;;;;;;;5090077;28;20495;-70
2023/01/14 15:09:57;;;;;;;4.43;1.27;;;;;;;;;;5090293;28;20158;-71
2023/01/14 15:12:23;;;;;;;5.88;1.10;;;;;;;;;;5089796;28;20020;-71
2023/01/14 15:14:59;;;;;;;6.28;1.35;;;;;;;;;;5090615;28;20023;-71
2023/01/14 15:17:26;;;;;;;4.85;1.30;;;;;;;;;;5090180;28;20024;-72
2023/01/14 15:19:53;;;;;;;5.57;1.50;;;;;;;;;;5090580;28;20099;-75
2023/01/14 15:22:20;;;;;;;4.88;1.50;;;;;;;;;;5089940;28;20495;-76
2023/01/14 15:24:51;;;;;;;6.75;1.50;;;;;;;;;;5090336;28;20020;-76
2023/01/14 15:27:19;;;;;;;6.25;1.20;;;;;;;;;;5074745;28;20052;-77
2023/01/14 15:29:56;;;;;;;4.47;1.15;;;;;;;;;;5087912;28;20099;-75
2023/01/14 15:32:39;;;;;;;6.85;1.40;;;;;;;;;;5085885;28;20020;-70
2023/01/14 15:35:23;;;;;;;7.10;1.27;;;;;;;;;;5095620;28;20032;-76
2023/01/14 15:37:52;;;;;;;3.50;1.23;;;;;;;;;;5084378;28;20032;-77
2023/01/14 15:40:22;;;;;;;4.65;1.30;;;;;;;;;;5094582;28;20044;-74